sensor_id;sensor_type;location;lat;lon;timestamp;pressure;altitude;pressure_sealevel;temperature;humidity
53246;BME280;39569;51.090;-1.786;2023-04-10T00:00:32;100813.22;;;17.93;54.68
53246;BME280;39569;51.090;-1.786;2023-04-10T00:03:00;100809.34;;;17.82;55.29
53246;BME280;39569;51.090;-1.786;2023-04-10T00:05:28;100809.81;;;18.22;54.78
53246;BME280;39569;51.090;-1.786;2023-04-10T00:07:55;100794.88;;;18.44;54.09
53246;BME280;39569;51.090;-1.786;2023-04-10T00:10:21;100791.41;;;18.55;53.80
53246;BME280;39569;51.090;-1.786;2023-04-10T00:12:50;100801.13;;;18.44;54.05
53246;BME280;39569;51.090;-1.786;2023-04-10T00:15:18;100798.06;;;18.77;53.42
53246;BME280;39569;51.090;-1.786;2023-04-10T00:17:45;100795.94;;;18.79;53.70
53246;BME280;39569;51.090;-1.786;2023-04-10T00:20:12;100800.38;;;18.74;53.96
53246;BME280;39569;51.090;-1.786;2023-04-10T00:22:40;100784.66;;;18.46;54.75
53246;BME280;39569;51.090;-1.786;2023-04-10T00:25:07;100780.56;;;18.37;55.26
53246;BME280;39569;51.090;-1.786;2023-04-10T00:27:34;100775.59;;;18.58;54.47
53246;BME280;39569;51.090;-1.786;2023-04-10T00:30:01;100772.19;;;18.45;54.56
53246;BME280;39569;51.090;-1.786;2023-04-10T00:32:27;100765.19;;;18.55;55.26
53246;BME280;39569;51.090;-1.786;2023-04-10T00:34:54;100765.88;;;18.87;54.11
53246;BME280;39569;51.090;-1.786;2023-04-10T00:37:21;100754.91;;;18.82;54.54
53246;BME280;39569;51.090;-1.786;2023-04-10T00:39:49;100755.47;;;19.02;53.88
53246;BME280;39569;51.090;-1.786;2023-04-10T00:42:16;100761.97;;;18.83;54.11
53246;BME280;39569;51.090;-1.786;2023-04-10T00:44:43;100751.38;;;18.82;54.57
53246;BME280;39569;51.090;-1.786;2023-04-10T00:47:11;100755.28;;;19.15;53.77
53246;BME280;39569;51.090;-1.786;2023-04-10T00:49:39;100752.94;;;18.89;53.85
53246;BME280;39569;51.090;-1.786;2023-04-10T00:52:07;100752.25;;;18.76;54.43
53246;BME280;39569;51.090;-1.786;2023-04-10T00:54:34;100743.47;;;18.80;54.57
53246;BME280;39569;51.090;-1.786;2023-04-10T00:57:03;100736.03;;;18.94;54.35
53246;BME280;39569;51.090;-1.786;2023-04-10T00:59:30;100728.22;;;19.15;53.77
53246;BME280;39569;51.090;-1.786;2023-04-10T01:01:57;100729.56;;;18.77;54.21
53246;BME280;39569;51.090;-1.786;2023-04-10T01:04:25;100721.34;;;18.83;54.86
53246;BME280;39569;51.090;-1.786;2023-04-10T01:06:57;100720.03;;;19.04;54.27
53246;BME280;39569;51.090;-1.786;2023-04-10T01:09:39;100723.13;;;19.07;53.95
53246;BME280;39569;51.090;-1.786;2023-04-10T01:12:27;100718.22;;;18.68;54.59
53246;BME280;39569;51.090;-1.786;2023-04-10T01:15:04;100708.00;;;18.88;54.63
53246;BME280;39569;51.090;-1.786;2023-04-10T01:17:34;100710.28;;;18.73;54.74
53246;BME280;39569;51.090;-1.786;2023-04-10T01:20:08;100710.09;;;18.86;54.67
53246;BME280;39569;51.090;-1.786;2023-04-10T01:22:44;100697.28;;;19.23;53.52
53246;BME280;39569;51.090;-1.786;2023-04-10T01:25:39;100696.81;;;18.96;53.67
53246;BME280;39569;51.090;-1.786;2023-04-10T01:28:20;100695.84;;;18.91;54.41
53246;BME280;39569;51.090;-1.786;2023-04-10T01:30:55;100693.56;;;18.76;54.44
53246;BME280;39569;51.090;-1.786;2023-04-10T01:33:27;100684.25;;;18.72;54.77
53246;BME280;39569;51.090;-1.786;2023-04-10T01:35:56;100675.31;;;18.53;55.42
53246;BME280;39569;51.090;-1.786;2023-04-10T01:38:27;100671.19;;;18.69;55.44
53246;BME280;39569;51.090;-1.786;2023-04-10T01:40:55;100666.22;;;18.30;56.17
53246;BME280;39569;51.090;-1.786;2023-04-10T01:43:24;100664.81;;;18.93;54.79
53246;BME280;39569;51.090;-1.786;2023-04-10T01:45:53;100653.03;;;19.29;53.84
53246;BME280;39569;51.090;-1.786;2023-04-10T01:48:21;100664.28;;;18.85;54.87
53246;BME280;39569;51.090;-1.786;2023-04-10T01:50:49;100651.31;;;19.05;54.21
53246;BME280;39569;51.090;-1.786;2023-04-10T01:53:16;100649.56;;;19.22;53.81
53246;BME280;39569;51.090;-1.786;2023-04-10T01:55:44;100647.91;;;19.09;54.65
53246;BME280;39569;51.090;-1.786;2023-04-10T01:58:10;100648.00;;;19.03;54.58
53246;BME280;39569;51.090;-1.786;2023-04-10T02:00:38;100645.81;;;19.23;54.19
53246;BME280;39569;51.090;-1.786;2023-04-10T02:03:07;100636.69;;;19.47;53.60
53246;BME280;39569;51.090;-1.786;2023-04-10T02:05:44;100640.28;;;19.29;54.27
53246;BME280;39569;51.090;-1.786;2023-04-10T02:08:15;100627.44;;;19.13;54.60
53246;BME280;39569;51.090;-1.786;2023-04-10T02:10:49;100624.75;;;19.25;54.36
53246;BME280;39569;51.090;-1.786;2023-04-10T02:13:20;100623.88;;;19.13;54.73
53246;BME280;39569;51.090;-1.786;2023-04-10T02:15:49;100627.00;;;18.87;55.74
53246;BME280;39569;51.090;-1.786;2023-04-10T02:18:17;100622.53;;;19.33;54.56
53246;BME280;39569;51.090;-1.786;2023-04-10T02:20:45;100625.16;;;19.40;54.20
53246;BME280;39569;51.090;-1.786;2023-04-10T02:23:14;100614.50;;;19.27;54.69
53246;BME280;39569;51.090;-1.786;2023-04-10T02:25:41;100617.78;;;19.17;55.00
53246;BME280;39569;51.090;-1.786;2023-04-10T02:28:08;100624.00;;;19.06;55.24
53246;BME280;39569;51.090;-1.786;2023-04-10T02:30:34;100619.66;;;18.76;56.01
53246;BME280;39569;51.090;-1.786;2023-04-10T02:33:01;100614.78;;;19.37;54.80
53246;BME280;39569;51.090;-1.786;2023-04-10T02:35:29;100618.44;;;19.42;54.67
53246;BME280;39569;51.090;-1.786;2023-04-10T02:37:56;100609.69;;;19.29;54.98
53246;BME280;39569;51.090;-1.786;2023-04-10T02:40:23;100609.28;;;19.02;55.70
53246;BME280;39569;51.090;-1.786;2023-04-10T02:42:50;100603.88;;;19.02;55.74
53246;BME280;39569;51.090;-1.786;2023-04-10T02:45:17;100600.63;;;19.35;54.90
53246;BME280;39569;51.090;-1.786;2023-04-10T02:47:43;100602.19;;;19.42;54.79
53246;BME280;39569;51.090;-1.786;2023-04-10T02:50:10;100601.94;;;19.55;54.52
53246;BME280;39569;51.090;-1.786;2023-04-10T02:52:39;100598.41;;;19.78;53.68
53246;BME280;39569;51.090;-1.786;2023-04-10T02:55:06;100595.34;;;19.63;54.43
53246;BME280;39569;51.090;-1.786;2023-04-10T02:57:33;100602.53;;;19.34;55.35
53246;BME280;39569;51.090;-1.786;2023-04-10T03:00:00;100598.41;;;19.32;55.42
53246;BME280;39569;51.090;-1.786;2023-04-10T03:02:27;100606.31;;;18.92;56.17
53246;BME280;39569;51.090;-1.786;2023-04-10T03:04:55;100612.78;;;18.91;57.36
53246;BME280;39569;51.090;-1.786;2023-04-10T03:07:21;100614.03;;;17.75;58.86
53246;BME280;39569;51.090;-1.786;2023-04-10T03:09:50;100606.00;;;17.19;59.22
53246;BME280;39569;51.090;-1.786;2023-04-10T03:12:16;100599.84;;;17.80;57.83
53246;BME280;39569;51.090;-1.786;2023-04-10T03:14:44;100622.16;;;17.75;56.89
53246;BME280;39569;51.090;-1.786;2023-04-10T03:17:11;100599.44;;;17.33;56.86
53246;BME280;39569;51.090;-1.786;2023-04-10T03:19:38;100607.38;;;18.14;55.50
53246;BME280;39569;51.090;-1.786;2023-04-10T03:22:04;100606.53;;;17.03;57.88
53246;BME280;39569;51.090;-1.786;2023-04-10T03:24:31;100612.09;;;17.82;56.20
53246;BME280;39569;51.090;-1.786;2023-04-10T03:26:59;100609.53;;;17.69;56.08
53246;BME280;39569;51.090;-1.786;2023-04-10T03:29:26;100599.84;;;17.98;55.35
53246;BME280;39569;51.090;-1.786;2023-04-10T03:31:53;100599.38;;;17.64;55.95
53246;BME280;39569;51.090;-1.786;2023-04-10T03:34:20;100597.84;;;17.75;55.87
53246;BME280;39569;51.090;-1.786;2023-04-10T03:36:46;100604.41;;;17.36;56.71
53246;BME280;39569;51.090;-1.786;2023-04-10T03:39:13;100597.66;;;17.52;56.50
53246;BME280;39569;51.090;-1.786;2023-04-10T03:41:40;100594.38;;;17.43;56.01
53246;BME280;39569;51.090;-1.786;2023-04-10T03:44:08;100589.94;;;18.10;55.23
53246;BME280;39569;51.090;-1.786;2023-04-10T03:46:35;100577.41;;;17.61;56.16
53246;BME280;39569;51.090;-1.786;2023-04-10T03:49:01;100570.59;;;17.77;56.02
53246;BME280;39569;51.090;-1.786;2023-04-10T03:51:28;100569.97;;;17.07;56.36
53246;BME280;39569;51.090;-1.786;2023-04-10T03:53:55;100565.56;;;17.62;55.53
53246;BME280;39569;51.090;-1.786;2023-04-10T03:56:22;100565.03;;;17.72;55.49
53246;BME280;39569;51.090;-1.786;2023-04-10T03:58:49;100559.88;;;17.88;55.33
53246;BME280;39569;51.090;-1.786;2023-04-10T04:01:17;100548.13;;;17.94;55.55
53246;BME280;39569;51.090;-1.786;2023-04-10T04:03:44;100550.59;;;17.96;55.28
53246;BME280;39569;51.090;-1.786;2023-04-10T04:06:11;100540.50;;;18.21;54.83
53246;BME280;39569;51.090;-1.786;2023-04-10T04:08:37;100542.84;;;17.45;56.87
53246;BME280;39569;51.090;-1.786;2023-04-10T04:11:05;100533.00;;;18.23;54.87
53246;BME280;39569;51.090;-1.786;2023-04-10T04:13:31;100525.81;;;18.88;53.11
53246;BME280;39569;51.090;-1.786;2023-04-10T04:15:58;100517.16;;;18.56;53.71
53246;BME280;39569;51.090;-1.786;2023-04-10T04:18:26;100513.66;;;18.37;54.31
53246;BME280;39569;51.090;-1.786;2023-04-10T04:20:53;100505.63;;;18.60;53.79
53246;BME280;39569;51.090;-1.786;2023-04-10T04:23:20;100500.69;;;18.28;53.90
53246;BME280;39569;51.090;-1.786;2023-04-10T04:25:46;100500.09;;;18.55;54.12
53246;BME280;39569;51.090;-1.786;2023-04-10T04:28:17;100500.97;;;17.90;55.72
53246;BME280;39569;51.090;-1.786;2023-04-10T04:30:43;100496.84;;;18.06;55.29
53246;BME280;39569;51.090;-1.786;2023-04-10T04:33:10;100488.19;;;18.15;55.19
53246;BME280;39569;51.090;-1.786;2023-04-10T04:35:38;100484.22;;;18.47;54.17
53246;BME280;39569;51.090;-1.786;2023-04-10T04:38:05;100477.66;;;18.78;53.57
53246;BME280;39569;51.090;-1.786;2023-04-10T04:40:31;100467.06;;;18.65;53.93
53246;BME280;39569;51.090;-1.786;2023-04-10T04:42:58;100466.13;;;18.59;53.97
53246;BME280;39569;51.090;-1.786;2023-04-10T04:45:25;100460.19;;;18.10;55.21
53246;BME280;39569;51.090;-1.786;2023-04-10T04:47:51;100458.44;;;18.15;55.74
53246;BME280;39569;51.090;-1.786;2023-04-10T04:50:18;100447.59;;;18.04;55.78
53246;BME280;39569;51.090;-1.786;2023-04-10T04:52:46;100445.53;;;17.88;56.81
53246;BME280;39569;51.090;-1.786;2023-04-10T04:55:13;100446.75;;;18.03;56.09
53246;BME280;39569;51.090;-1.786;2023-04-10T04:57:40;100438.25;;;18.47;54.97
53246;BME280;39569;51.090;-1.786;2023-04-10T05:00:07;100440.25;;;18.22;55.95
53246;BME280;39569;51.090;-1.786;2023-04-10T05:02:34;100433.13;;;17.98;57.05
53246;BME280;39569;51.090;-1.786;2023-04-10T05:05:01;100437.28;;;18.53;55.56
53246;BME280;39569;51.090;-1.786;2023-04-10T05:07:28;100422.84;;;18.59;55.63
53246;BME280;39569;51.090;-1.786;2023-04-10T05:09:57;100422.16;;;18.23;56.70
53246;BME280;39569;51.090;-1.786;2023-04-10T05:12:23;100428.75;;;18.38;56.85
53246;BME280;39569;51.090;-1.786;2023-04-10T05:14:50;100426.47;;;18.12;57.31
53246;BME280;39569;51.090;-1.786;2023-04-10T05:17:17;100424.91;;;18.46;56.74
53246;BME280;39569;51.090;-1.786;2023-04-10T05:19:44;100422.38;;;18.74;55.99
53246;BME280;39569;51.090;-1.786;2023-04-10T05:22:10;100411.25;;;18.41;57.33
53246;BME280;39569;51.090;-1.786;2023-04-10T05:24:37;100410.94;;;18.49;56.88
53246;BME280;39569;51.090;-1.786;2023-04-10T05:27:05;100404.06;;;18.35;57.53
53246;BME280;39569;51.090;-1.786;2023-04-10T05:29:32;100407.41;;;18.48;57.56
53246;BME280;39569;51.090;-1.786;2023-04-10T05:31:59;100406.88;;;18.28;58.24
53246;BME280;39569;51.090;-1.786;2023-04-10T05:34:26;100394.56;;;18.44;57.89
53246;BME280;39569;51.090;-1.786;2023-04-10T05:36:53;100398.13;;;18.91;56.77
53246;BME280;39569;51.090;-1.786;2023-04-10T05:39:20;100402.00;;;18.95;56.70
53246;BME280;39569;51.090;-1.786;2023-04-10T05:41:46;100386.94;;;18.87;56.93
53246;BME280;39569;51.090;-1.786;2023-04-10T05:44:14;100389.81;;;18.28;58.92
53246;BME280;39569;51.090;-1.786;2023-04-10T05:46:41;100401.31;;;18.64;57.54
53246;BME280;39569;51.090;-1.786;2023-04-10T05:49:08;100385.91;;;18.88;56.91
53246;BME280;39569;51.090;-1.786;2023-04-10T05:51:35;100386.56;;;19.07;56.40
53246;BME280;39569;51.090;-1.786;2023-04-10T05:54:01;100386.47;;;18.90;56.80
53246;BME280;39569;51.090;-1.786;2023-04-10T05:56:28;100378.81;;;19.10;56.70
53246;BME280;39569;51.090;-1.786;2023-04-10T05:58:55;100381.66;;;18.46;57.81
53246;BME280;39569;51.090;-1.786;2023-04-10T06:01:23;100371.06;;;18.79;57.77
53246;BME280;39569;51.090;-1.786;2023-04-10T06:03:50;100377.44;;;18.61;58.27
53246;BME280;39569;51.090;-1.786;2023-04-10T06:06:19;100378.38;;;18.67;57.64
53246;BME280;39569;51.090;-1.786;2023-04-10T06:08:46;100370.13;;;18.85;57.63
53246;BME280;39569;51.090;-1.786;2023-04-10T06:11:12;100373.78;;;18.79;57.40
53246;BME280;39569;51.090;-1.786;2023-04-10T06:13:39;100373.50;;;18.34;58.85
53246;BME280;39569;51.090;-1.786;2023-04-10T06:16:07;100365.88;;;18.66;58.02
53246;BME280;39569;51.090;-1.786;2023-04-10T06:18:36;100361.75;;;18.29;59.21
53246;BME280;39569;51.090;-1.786;2023-04-10T06:21:03;100361.31;;;18.55;58.48
53246;BME280;39569;51.090;-1.786;2023-04-10T06:23:30;100350.94;;;18.29;59.49
53246;BME280;39569;51.090;-1.786;2023-04-10T06:25:57;100340.69;;;18.19;59.99
53246;BME280;39569;51.090;-1.786;2023-04-10T06:28:24;100342.84;;;18.63;59.09
53246;BME280;39569;51.090;-1.786;2023-04-10T06:30:51;100350.84;;;18.82;58.13
53246;BME280;39569;51.090;-1.786;2023-04-10T06:33:17;100340.38;;;18.62;59.26
53246;BME280;39569;51.090;-1.786;2023-04-10T06:35:46;100330.91;;;19.50;56.50
53246;BME280;39569;51.090;-1.786;2023-04-10T06:38:13;100327.97;;;19.12;57.13
53246;BME280;39569;51.090;-1.786;2023-04-10T06:40:40;100328.50;;;18.63;58.47
53246;BME280;39569;51.090;-1.786;2023-04-10T06:43:07;100322.72;;;19.22;57.54
53246;BME280;39569;51.090;-1.786;2023-04-10T06:45:33;100321.38;;;19.48;56.47
53246;BME280;39569;51.090;-1.786;2023-04-10T06:48:00;100312.59;;;18.67;58.76
53246;BME280;39569;51.090;-1.786;2023-04-10T06:50:27;100308.19;;;19.00;58.04
53246;BME280;39569;51.090;-1.786;2023-04-10T06:52:55;100319.28;;;18.29;59.46
53246;BME280;39569;51.090;-1.786;2023-04-10T06:55:24;100316.84;;;18.62;59.00
53246;BME280;39569;51.090;-1.786;2023-04-10T06:57:51;100312.69;;;18.83;58.20
53246;BME280;39569;51.090;-1.786;2023-04-10T07:00:18;100298.63;;;19.09;57.60
53246;BME280;39569;51.090;-1.786;2023-04-10T07:02:45;100300.34;;;18.87;58.13
53246;BME280;39569;51.090;-1.786;2023-04-10T07:05:12;100312.66;;;19.06;57.91
53246;BME280;39569;51.090;-1.786;2023-04-10T07:07:39;100297.72;;;19.04;57.92
53246;BME280;39569;51.090;-1.786;2023-04-10T07:10:08;100296.13;;;18.33;59.93
53246;BME280;39569;51.090;-1.786;2023-04-10T07:12:35;100287.44;;;19.17;57.47
53246;BME280;39569;51.090;-1.786;2023-04-10T07:15:02;100285.38;;;18.96;58.14
53246;BME280;39569;51.090;-1.786;2023-04-10T07:17:29;100273.41;;;19.20;57.24
53246;BME280;39569;51.090;-1.786;2023-04-10T07:19:55;100281.69;;;19.14;57.42
53246;BME280;39569;51.090;-1.786;2023-04-10T07:22:22;100266.84;;;19.44;56.88
53246;BME280;39569;51.090;-1.786;2023-04-10T07:24:49;100279.78;;;18.75;58.46
53246;BME280;39569;51.090;-1.786;2023-04-10T07:27:17;100276.50;;;18.73;58.39
53246;BME280;39569;51.090;-1.786;2023-04-10T07:29:45;100267.22;;;18.22;60.27
53246;BME280;39569;51.090;-1.786;2023-04-10T07:32:12;100265.16;;;18.87;58.50
53246;BME280;39569;51.090;-1.786;2023-04-10T07:34:39;100253.78;;;19.13;57.97
53246;BME280;39569;51.090;-1.786;2023-04-10T07:37:06;100251.47;;;19.95;55.66
53246;BME280;39569;51.090;-1.786;2023-04-10T07:39:33;100254.28;;;19.10;57.72
53246;BME280;39569;51.090;-1.786;2023-04-10T07:42:01;100259.53;;;19.17;57.60
53246;BME280;39569;51.090;-1.786;2023-04-10T07:44:29;100267.50;;;18.95;57.96
53246;BME280;39569;51.090;-1.786;2023-04-10T07:46:56;100249.72;;;19.27;57.07
53246;BME280;39569;51.090;-1.786;2023-04-10T07:49:23;100258.66;;;19.39;57.07
53246;BME280;39569;51.090;-1.786;2023-04-10T07:51:50;100258.22;;;18.91;58.85
53246;BME280;39569;51.090;-1.786;2023-04-10T07:54:16;100241.50;;;19.22;58.05
53246;BME280;39569;51.090;-1.786;2023-04-10T07:56:43;100240.38;;;19.07;58.09
53246;BME280;39569;51.090;-1.786;2023-04-10T07:59:10;100234.66;;;19.20;57.83
53246;BME280;39569;51.090;-1.786;2023-04-10T08:01:38;100228.13;;;19.77;56.30
53246;BME280;39569;51.090;-1.786;2023-04-10T08:04:06;100234.13;;;19.63;56.37
53246;BME280;39569;51.090;-1.786;2023-04-10T08:06:32;100231.84;;;19.71;56.29
53246;BME280;39569;51.090;-1.786;2023-04-10T08:08:59;100227.00;;;19.90;56.14
53246;BME280;39569;51.090;-1.786;2023-04-10T08:11:28;100227.53;;;19.42;57.26
53246;BME280;39569;51.090;-1.786;2023-04-10T08:13:56;100215.69;;;20.14;55.54
53246;BME280;39569;51.090;-1.786;2023-04-10T08:16:27;100227.34;;;19.32;57.50
53246;BME280;39569;51.090;-1.786;2023-04-10T08:18:56;100219.91;;;19.55;57.19
53246;BME280;39569;51.090;-1.786;2023-04-10T08:21:24;100236.44;;;19.87;56.12
53246;BME280;39569;51.090;-1.786;2023-04-10T08:23:52;100234.53;;;19.38;57.59
53246;BME280;39569;51.090;-1.786;2023-04-10T08:26:19;100213.59;;;19.83;56.27
53246;BME280;39569;51.090;-1.786;2023-04-10T08:28:47;100199.22;;;19.83;56.08
53246;BME280;39569;51.090;-1.786;2023-04-10T08:31:15;100207.75;;;20.24;55.19
53246;BME280;39569;51.090;-1.786;2023-04-10T08:33:42;100226.16;;;19.28;57.31
53246;BME280;39569;51.090;-1.786;2023-04-10T08:36:10;100221.22;;;19.08;58.21
53246;BME280;39569;51.090;-1.786;2023-04-10T08:38:37;100223.56;;;19.33;57.80
53246;BME280;39569;51.090;-1.786;2023-04-10T08:41:05;100223.00;;;19.03;58.42
53246;BME280;39569;51.090;-1.786;2023-04-10T08:43:32;100221.00;;;19.54;57.39
53246;BME280;39569;51.090;-1.786;2023-04-10T08:46:00;100228.19;;;18.18;60.62
53246;BME280;39569;51.090;-1.786;2023-04-10T08:48:30;100226.22;;;19.44;57.64
53246;BME280;39569;51.090;-1.786;2023-04-10T08:50:59;100229.50;;;19.18;58.73
53246;BME280;39569;51.090;-1.786;2023-04-10T08:53:30;100223.63;;;18.93;59.39
53246;BME280;39569;51.090;-1.786;2023-04-10T08:55:57;100222.75;;;19.04;59.11
53246;BME280;39569;51.090;-1.786;2023-04-10T08:58:26;100210.84;;;20.16;55.88
53246;BME280;39569;51.090;-1.786;2023-04-10T09:00:53;100219.63;;;20.40;55.74
53246;BME280;39569;51.090;-1.786;2023-04-10T09:03:21;100209.09;;;19.27;57.89
53246;BME280;39569;51.090;-1.786;2023-04-10T09:05:48;100214.25;;;19.90;57.05
53246;BME280;39569;51.090;-1.786;2023-04-10T09:08:15;100217.25;;;18.59;60.42
53246;BME280;39569;51.090;-1.786;2023-04-10T09:10:43;100222.97;;;19.76;57.32
53246;BME280;39569;51.090;-1.786;2023-04-10T09:13:10;100227.78;;;19.12;59.08
53246;BME280;39569;51.090;-1.786;2023-04-10T09:15:56;100231.00;;;20.04;56.54
53246;BME280;39569;51.090;-1.786;2023-04-10T09:18:39;100226.47;;;19.15;58.80
53246;BME280;39569;51.090;-1.786;2023-04-10T09:21:06;100221.88;;;19.43;58.19
53246;BME280;39569;51.090;-1.786;2023-04-10T09:23:33;100222.28;;;19.35;58.35
53246;BME280;39569;51.090;-1.786;2023-04-10T09:26:05;100224.00;;;20.08;56.30
53246;BME280;39569;51.090;-1.786;2023-04-10T09:28:55;100207.00;;;20.72;54.24
53246;BME280;39569;51.090;-1.786;2023-04-10T09:31:30;100207.59;;;20.52;55.03
53246;BME280;39569;51.090;-1.786;2023-04-10T09:34:09;100190.28;;;20.37;55.56
53246;BME280;39569;51.090;-1.786;2023-04-10T09:36:36;100193.34;;;21.37;52.95
53246;BME280;39569;51.090;-1.786;2023-04-10T09:39:03;100198.06;;;21.46;52.67
53246;BME280;39569;51.090;-1.786;2023-04-10T09:41:32;100193.44;;;20.72;53.23
53246;BME280;39569;51.090;-1.786;2023-04-10T09:44:05;100193.00;;;20.37;54.76
53246;BME280;39569;51.090;-1.786;2023-04-10T09:46:33;100183.03;;;20.42;53.99
53246;BME280;39569;51.090;-1.786;2023-04-10T09:49:00;100194.69;;;20.05;55.08
53246;BME280;39569;51.090;-1.786;2023-04-10T09:51:31;100188.53;;;20.69;53.43
53246;BME280;39569;51.090;-1.786;2023-04-10T09:53:59;100187.69;;;20.69;52.82
53246;BME280;39569;51.090;-1.786;2023-04-10T09:56:27;100179.47;;;21.33;52.46
53246;BME280;39569;51.090;-1.786;2023-04-10T09:58:57;100180.53;;;21.64;51.46
53246;BME280;39569;51.090;-1.786;2023-04-10T10:01:25;100166.75;;;21.12;51.40
53246;BME280;39569;51.090;-1.786;2023-04-10T10:03:54;100162.84;;;20.77;53.21
53246;BME280;39569;51.090;-1.786;2023-04-10T10:06:21;100161.13;;;21.19;51.89
53246;BME280;39569;51.090;-1.786;2023-04-10T10:08:49;100154.59;;;22.25;50.80
53246;BME280;39569;51.090;-1.786;2023-04-10T10:11:18;100147.13;;;21.64;50.40
53246;BME280;39569;51.090;-1.786;2023-04-10T10:13:49;100151.50;;;21.06;51.92
53246;BME280;39569;51.090;-1.786;2023-04-10T10:16:21;100167.00;;;21.37;51.10
53246;BME280;39569;51.090;-1.786;2023-04-10T10:18:54;100186.56;;;20.86;51.25
53246;BME280;39569;51.090;-1.786;2023-04-10T10:21:23;100189.72;;;20.35;52.95
53246;BME280;39569;51.090;-1.786;2023-04-10T10:23:51;100185.97;;;21.06;51.59
53246;BME280;39569;51.090;-1.786;2023-04-10T10:26:19;100195.59;;;20.92;51.11
53246;BME280;39569;51.090;-1.786;2023-04-10T10:28:48;100180.59;;;21.37;51.53
53246;BME280;39569;51.090;-1.786;2023-04-10T10:31:17;100179.13;;;21.57;50.18
53246;BME280;39569;51.090;-1.786;2023-04-10T10:33:46;100176.59;;;21.18;48.27
53246;BME280;39569;51.090;-1.786;2023-04-10T10:36:14;100181.44;;;20.90;48.99
53246;BME280;39569;51.090;-1.786;2023-04-10T10:38:48;100177.88;;;21.69;47.80
53246;BME280;39569;51.090;-1.786;2023-04-10T10:41:21;100185.94;;;22.32;45.90
53246;BME280;39569;51.090;-1.786;2023-04-10T10:43:52;100175.94;;;22.01;46.91
53246;BME280;39569;51.090;-1.786;2023-04-10T10:46:27;100170.63;;;21.80;47.06
53246;BME280;39569;51.090;-1.786;2023-04-10T10:48:59;100169.38;;;22.44;46.33
53246;BME280;39569;51.090;-1.786;2023-04-10T10:51:42;100172.94;;;21.66;48.12
53246;BME280;39569;51.090;-1.786;2023-04-10T10:54:27;100173.38;;;22.88;45.49
53246;BME280;39569;51.090;-1.786;2023-04-10T10:56:54;100180.06;;;22.09;45.53
53246;BME280;39569;51.090;-1.786;2023-04-10T10:59:53;100163.28;;;22.79;44.92
53246;BME280;39569;51.090;-1.786;2023-04-10T11:02:22;100169.34;;;21.87;48.06
53246;BME280;39569;51.090;-1.786;2023-04-10T11:04:50;100183.22;;;20.36;49.27
53246;BME280;39569;51.090;-1.786;2023-04-10T11:07:17;100193.78;;;19.83;51.49
53246;BME280;39569;51.090;-1.786;2023-04-10T11:09:49;100181.50;;;19.92;52.46
53246;BME280;39569;51.090;-1.786;2023-04-10T11:12:19;100165.63;;;20.60;52.42
53246;BME280;39569;51.090;-1.786;2023-04-10T11:14:56;100181.53;;;21.21;50.08
53246;BME280;39569;51.090;-1.786;2023-04-10T11:17:45;100172.34;;;21.59;49.43
53246;BME280;39569;51.090;-1.786;2023-04-10T11:20:14;100171.16;;;22.70;47.06
53246;BME280;39569;51.090;-1.786;2023-04-10T11:23:06;100149.84;;;27.35;37.12
53246;BME280;39569;51.090;-1.786;2023-04-10T11:25:46;100143.69;;;25.30;39.62
53246;BME280;39569;51.090;-1.786;2023-04-10T11:28:34;100155.56;;;25.54;40.76
53246;BME280;39569;51.090;-1.786;2023-04-10T11:31:16;100146.03;;;26.56;39.88
53246;BME280;39569;51.090;-1.786;2023-04-10T11:33:45;100144.44;;;27.11;37.02
53246;BME280;39569;51.090;-1.786;2023-04-10T11:36:15;100163.78;;;26.59;38.34
53246;BME280;39569;51.090;-1.786;2023-04-10T11:38:53;100154.69;;;27.43;35.76
53246;BME280;39569;51.090;-1.786;2023-04-10T11:41:22;100181.13;;;23.97;43.35
53246;BME280;39569;51.090;-1.786;2023-04-10T11:43:51;100179.22;;;22.50;45.50
53246;BME280;39569;51.090;-1.786;2023-04-10T11:46:19;100231.09;;;22.28;46.00
53246;BME280;39569;51.090;-1.786;2023-04-10T11:48:46;100210.41;;;20.03;47.66
53246;BME280;39569;51.090;-1.786;2023-04-10T11:51:14;100193.63;;;18.83;47.73
53246;BME280;39569;51.090;-1.786;2023-04-10T11:53:41;100195.84;;;18.58;48.26
53246;BME280;39569;51.090;-1.786;2023-04-10T11:56:18;100196.94;;;18.22;48.89
53246;BME280;39569;51.090;-1.786;2023-04-10T11:58:48;100193.94;;;17.43;50.22
53246;BME280;39569;51.090;-1.786;2023-04-10T12:01:20;100201.78;;;17.97;50.34
53246;BME280;39569;51.090;-1.786;2023-04-10T12:03:47;100186.91;;;17.53;50.03
53246;BME280;39569;51.090;-1.786;2023-04-10T12:06:15;100184.28;;;17.88;49.55
53246;BME280;39569;51.090;-1.786;2023-04-10T12:08:44;100204.84;;;18.12;49.43
53246;BME280;39569;51.090;-1.786;2023-04-10T12:11:12;100187.81;;;18.63;47.87
53246;BME280;39569;51.090;-1.786;2023-04-10T12:13:40;100190.59;;;21.64;43.98
53246;BME280;39569;51.090;-1.786;2023-04-10T12:16:08;100173.69;;;24.38;37.91
53246;BME280;39569;51.090;-1.786;2023-04-10T12:18:35;100176.16;;;25.03;36.94
53246;BME280;39569;51.090;-1.786;2023-04-10T12:21:03;100171.84;;;24.87;36.80
53246;BME280;39569;51.090;-1.786;2023-04-10T12:23:32;100179.06;;;26.41;35.59
53246;BME280;39569;51.090;-1.786;2023-04-10T12:26:10;100178.66;;;26.53;34.07
53246;BME280;39569;51.090;-1.786;2023-04-10T12:28:37;100179.34;;;25.87;35.07
53246;BME280;39569;51.090;-1.786;2023-04-10T12:31:05;100172.81;;;27.20;33.81
53246;BME280;39569;51.090;-1.786;2023-04-10T12:33:32;100180.97;;;28.67;32.76
53246;BME280;39569;51.090;-1.786;2023-04-10T12:35:59;100168.00;;;28.27;32.67
53246;BME280;39569;51.090;-1.786;2023-04-10T12:38:41;100188.03;;;22.72;41.71
53246;BME280;39569;51.090;-1.786;2023-04-10T12:41:10;100174.28;;;23.19;41.97
53246;BME280;39569;51.090;-1.786;2023-04-10T12:43:39;100160.97;;;25.59;36.38
53246;BME280;39569;51.090;-1.786;2023-04-10T12:46:07;100174.69;;;26.87;34.61
53246;BME280;39569;51.090;-1.786;2023-04-10T12:48:34;100161.22;;;27.92;32.38